sensor_id;sensor_type;location;lat;lon;timestamp;temperature;humidity
14095;DHT22;18096;48.142;16.290;2023-04-30T00:01:41;14.00;99.90
14095;DHT22;18096;48.142;16.290;2023-04-30T00:04:07;14.00;99.90
14095;DHT22;18096;48.142;16.290;2023-04-30T00:06:32;13.90;99.90
14095;DHT22;18096;48.142;16.290;2023-04-30T00:08:58;13.90;99.90
14095;DHT22;18096;48.142;16.290;2023-04-30T00:11:24;13.90;99.90
14095;DHT22;18096;48.142;16.290;2023-04-30T00:13:50;13.80;99.90
14095;DHT22;18096;48.142;16.290;2023-04-30T00:16:17;13.70;99.90
14095;DHT22;18096;48.142;16.290;2023-04-30T00:18:42;13.70;99.90
14095;DHT22;18096;48.142;16.290;2023-04-30T00:21:08;13.60;99.90
14095;DHT22;18096;48.142;16.290;2023-04-30T00:23:34;13.60;99.90
14095;DHT22;18096;48.142;16.290;2023-04-30T00:26:00;13.50;99.90
14095;DHT22;18096;48.142;16.290;2023-04-30T00:28:26;13.40;99.90
14095;DHT22;18096;48.142;16.290;2023-04-30T00:30:52;13.30;99.90
14095;DHT22;18096;48.142;16.290;2023-04-30T00:33:17;13.20;99.90
14095;DHT22;18096;48.142;16.290;2023-04-30T00:35:43;13.20;99.90
14095;DHT22;18096;48.142;16.290;2023-04-30T00:38:09;13.10;99.90
14095;DHT22;18096;48.142;16.290;2023-04-30T00:40:35;13.10;99.90
14095;DHT22;18096;48.142;16.290;2023-04-30T00:43:01;13.00;99.90
14095;DHT22;18096;48.142;16.290;2023-04-30T00:45:27;13.00;99.90
14095;DHT22;18096;48.142;16.290;2023-04-30T00:47:53;12.90;99.90
14095;DHT22;18096;48.142;16.290;2023-04-30T00:50:19;13.00;99.90
14095;DHT22;18096;48.142;16.290;2023-04-30T00:52:44;12.90;99.90
14095;DHT22;18096;48.142;16.290;2023-04-30T00:55:11;12.80;99.90
14095;DHT22;18096;48.142;16.290;2023-04-30T00:57:37;12.80;99.90
14095;DHT22;18096;48.142;16.290;2023-04-30T01:00:04;12.80;99.90
14095;DHT22;18096;48.142;16.290;2023-04-30T01:02:30;12.80;99.90
14095;DHT22;18096;48.142;16.290;2023-04-30T01:04:57;12.80;99.90
14095;DHT22;18096;48.142;16.290;2023-04-30T01:07:24;12.70;99.90
14095;DHT22;18096;48.142;16.290;2023-04-30T01:09:53;12.70;99.90
14095;DHT22;18096;48.142;16.290;2023-04-30T01:18:03;12.60;99.90
14095;DHT22;18096;48.142;16.290;2023-04-30T01:20:30;12.60;99.90
14095;DHT22;18096;48.142;16.290;2023-04-30T01:26:26;12.60;99.90
14095;DHT22;18096;48.142;16.290;2023-04-30T01:28:56;12.50;99.90
14095;DHT22;18096;48.142;16.290;2023-04-30T01:31:23;12.50;99.90
14095;DHT22;18096;48.142;16.290;2023-04-30T01:33:49;12.50;99.90
14095;DHT22;18096;48.142;16.290;2023-04-30T01:36:39;12.50;99.90
14095;DHT22;18096;48.142;16.290;2023-04-30T01:42:15;12.40;99.90
14095;DHT22;18096;48.142;16.290;2023-04-30T01:44:52;12.40;99.90
14095;DHT22;18096;48.142;16.290;2023-04-30T01:47:38;12.50;99.90
14095;DHT22;18096;48.142;16.290;2023-04-30T01:53:12;12.40;99.90
14095;DHT22;18096;48.142;16.290;2023-04-30T01:56:00;12.40;99.90
14095;DHT22;18096;48.142;16.290;2023-04-30T01:58:26;12.40;99.90
14095;DHT22;18096;48.142;16.290;2023-04-30T02:00:52;12.40;99.90
14095;DHT22;18096;48.142;16.290;2023-04-30T02:03:18;12.40;99.90
14095;DHT22;18096;48.142;16.290;2023-04-30T02:05:44;12.40;99.90
14095;DHT22;18096;48.142;16.290;2023-04-30T02:08:09;12.40;99.90
14095;DHT22;18096;48.142;16.290;2023-04-30T02:10:35;12.40;99.90
14095;DHT22;18096;48.142;16.290;2023-04-30T02:13:00;12.50;99.90
14095;DHT22;18096;48.142;16.290;2023-04-30T02:15:26;12.40;99.90
14095;DHT22;18096;48.142;16.290;2023-04-30T02:17:52;12.50;99.90
14095;DHT22;18096;48.142;16.290;2023-04-30T02:20:18;12.50;99.90
14095;DHT22;18096;48.142;16.290;2023-04-30T02:22:43;12.50;99.90
14095;DHT22;18096;48.142;16.290;2023-04-30T02:25:09;12.50;99.90
14095;DHT22;18096;48.142;16.290;2023-04-30T02:27:37;12.50;99.90
14095;DHT22;18096;48.142;16.290;2023-04-30T02:30:03;12.50;99.90
14095;DHT22;18096;48.142;16.290;2023-04-30T02:32:29;12.40;99.90
14095;DHT22;18096;48.142;16.290;2023-04-30T02:34:55;12.40;99.90
14095;DHT22;18096;48.142;16.290;2023-04-30T02:37:21;12.40;99.90
14095;DHT22;18096;48.142;16.290;2023-04-30T02:39:47;12.40;99.90
14095;DHT22;18096;48.142;16.290;2023-04-30T02:42:12;12.40;99.90
14095;DHT22;18096;48.142;16.290;2023-04-30T02:44:38;12.40;99.90
14095;DHT22;18096;48.142;16.290;2023-04-30T02:47:04;12.40;99.90
14095;DHT22;18096;48.142;16.290;2023-04-30T02:49:29;12.40;99.90
14095;DHT22;18096;48.142;16.290;2023-04-30T02:51:55;12.40;99.90
14095;DHT22;18096;48.142;16.290;2023-04-30T02:54:21;12.40;99.90
14095;DHT22;18096;48.142;16.290;2023-04-30T02:56:46;12.40;99.90
14095;DHT22;18096;48.142;16.290;2023-04-30T02:59:12;12.40;99.90
14095;DHT22;18096;48.142;16.290;2023-04-30T03:01:38;12.40;99.90
14095;DHT22;18096;48.142;16.290;2023-04-30T03:04:04;12.30;99.90
14095;DHT22;18096;48.142;16.290;2023-04-30T03:06:31;12.30;99.90
14095;DHT22;18096;48.142;16.290;2023-04-30T03:08:57;12.30;99.90
14095;DHT22;18096;48.142;16.290;2023-04-30T03:11:23;12.30;99.90
14095;DHT22;18096;48.142;16.290;2023-04-30T03:13:48;12.30;99.90
14095;DHT22;18096;48.142;16.290;2023-04-30T03:16:16;12.30;99.90
14095;DHT22;18096;48.142;16.290;2023-04-30T03:18:43;12.20;99.90
14095;DHT22;18096;48.142;16.290;2023-04-30T03:21:08;12.30;99.90
14095;DHT22;18096;48.142;16.290;2023-04-30T03:23:34;12.20;99.90
14095;DHT22;18096;48.142;16.290;2023-04-30T03:26:00;12.30;99.90
14095;DHT22;18096;48.142;16.290;2023-04-30T03:28:25;12.20;99.90
14095;DHT22;18096;48.142;16.290;2023-04-30T03:30:51;12.30;99.90
14095;DHT22;18096;48.142;16.290;2023-04-30T03:33:17;12.20;99.90
14095;DHT22;18096;48.142;16.290;2023-04-30T03:35:43;12.30;99.90
14095;DHT22;18096;48.142;16.290;2023-04-30T03:38:08;12.30;99.90
14095;DHT22;18096;48.142;16.290;2023-04-30T03:40:34;12.30;99.90
14095;DHT22;18096;48.142;16.290;2023-04-30T03:43:00;12.20;99.90
14095;DHT22;18096;48.142;16.290;2023-04-30T03:45:25;12.20;99.90
14095;DHT22;18096;48.142;16.290;2023-04-30T03:47:51;12.20;99.90
14095;DHT22;18096;48.142;16.290;2023-04-30T03:50:17;12.20;99.90
14095;DHT22;18096;48.142;16.290;2023-04-30T03:52:43;12.20;99.90
14095;DHT22;18096;48.142;16.290;2023-04-30T03:55:09;12.10;99.90
14095;DHT22;18096;48.142;16.290;2023-04-30T03:57:35;12.10;99.90
14095;DHT22;18096;48.142;16.290;2023-04-30T04:00:01;12.10;99.90
14095;DHT22;18096;48.142;16.290;2023-04-30T04:02:30;12.10;99.90
14095;DHT22;18096;48.142;16.290;2023-04-30T04:04:56;12.20;99.90
14095;DHT22;18096;48.142;16.290;2023-04-30T04:07:22;12.20;99.90
14095;DHT22;18096;48.142;16.290;2023-04-30T04:09:47;12.20;99.90
14095;DHT22;18096;48.142;16.290;2023-04-30T04:12:13;12.20;99.90
14095;DHT22;18096;48.142;16.290;2023-04-30T04:14:39;12.20;99.90
14095;DHT22;18096;48.142;16.290;2023-04-30T04:17:04;12.20;99.90
14095;DHT22;18096;48.142;16.290;2023-04-30T04:19:30;12.20;99.90
14095;DHT22;18096;48.142;16.290;2023-04-30T04:21:56;12.20;99.90
14095;DHT22;18096;48.142;16.290;2023-04-30T04:24:24;12.30;99.90
14095;DHT22;18096;48.142;16.290;2023-04-30T04:26:50;12.30;99.90
14095;DHT22;18096;48.142;16.290;2023-04-30T04:29:15;12.20;99.90
14095;DHT22;18096;48.142;16.290;2023-04-30T04:31:41;12.30;99.90
14095;DHT22;18096;48.142;16.290;2023-04-30T04:34:07;12.30;99.90
14095;DHT22;18096;48.142;16.290;2023-04-30T04:36:32;12.30;99.90
14095;DHT22;18096;48.142;16.290;2023-04-30T04:38:59;12.30;99.90
14095;DHT22;18096;48.142;16.290;2023-04-30T04:41:29;12.40;99.90
14095;DHT22;18096;48.142;16.290;2023-04-30T04:43:55;12.40;99.90
14095;DHT22;18096;48.142;16.290;2023-04-30T04:46:21;12.30;99.90
14095;DHT22;18096;48.142;16.290;2023-04-30T04:48:47;12.40;99.90
14095;DHT22;18096;48.142;16.290;2023-04-30T04:51:13;12.30;99.90
14095;DHT22;18096;48.142;16.290;2023-04-30T04:53:39;12.40;99.90
14095;DHT22;18096;48.142;16.290;2023-04-30T04:56:05;12.40;99.90
14095;DHT22;18096;48.142;16.290;2023-04-30T04:58:31;12.30;99.90
14095;DHT22;18096;48.142;16.290;2023-04-30T05:00:57;12.40;99.90
14095;DHT22;18096;48.142;16.290;2023-04-30T05:03:27;12.40;99.90
14095;DHT22;18096;48.142;16.290;2023-04-30T05:05:53;12.40;99.90
14095;DHT22;18096;48.142;16.290;2023-04-30T05:08:19;12.40;99.90
14095;DHT22;18096;48.142;16.290;2023-04-30T05:10:45;12.40;99.90
14095;DHT22;18096;48.142;16.290;2023-04-30T05:13:10;12.50;99.90
14095;DHT22;18096;48.142;16.290;2023-04-30T05:15:36;12.60;99.90
14095;DHT22;18096;48.142;16.290;2023-04-30T05:18:02;12.60;99.90
14095;DHT22;18096;48.142;16.290;2023-04-30T05:20:28;12.70;99.90
14095;DHT22;18096;48.142;16.290;2023-04-30T05:22:56;12.80;99.90
14095;DHT22;18096;48.142;16.290;2023-04-30T05:25:22;12.90;99.90
14095;DHT22;18096;48.142;16.290;2023-04-30T05:27:48;13.00;99.90
14095;DHT22;18096;48.142;16.290;2023-04-30T05:30:14;13.00;99.90
14095;DHT22;18096;48.142;16.290;2023-04-30T05:32:40;13.10;99.90
14095;DHT22;18096;48.142;16.290;2023-04-30T05:35:07;13.20;99.90
14095;DHT22;18096;48.142;16.290;2023-04-30T05:37:33;13.20;99.90
14095;DHT22;18096;48.142;16.290;2023-04-30T05:39:58;13.20;99.90
14095;DHT22;18096;48.142;16.290;2023-04-30T05:42:24;13.20;99.90
14095;DHT22;18096;48.142;16.290;2023-04-30T05:44:50;13.20;99.90
14095;DHT22;18096;48.142;16.290;2023-04-30T05:47:15;13.20;99.90
14095;DHT22;18096;48.142;16.290;2023-04-30T05:49:41;13.20;99.90
14095;DHT22;18096;48.142;16.290;2023-04-30T05:52:07;13.20;99.90
14095;DHT22;18096;48.142;16.290;2023-04-30T05:54:32;13.20;99.90
14095;DHT22;18096;48.142;16.290;2023-04-30T05:56:58;13.30;99.90
14095;DHT22;18096;48.142;16.290;2023-04-30T05:59:24;13.30;99.90
14095;DHT22;18096;48.142;16.290;2023-04-30T06:01:50;13.30;99.90
14095;DHT22;18096;48.142;16.290;2023-04-30T06:04:16;13.30;99.90
14095;DHT22;18096;48.142;16.290;2023-04-30T06:06:42;13.30;99.90
14095;DHT22;18096;48.142;16.290;2023-04-30T06:09:07;13.40;99.90
14095;DHT22;18096;48.142;16.290;2023-04-30T06:11:34;13.40;99.90
14095;DHT22;18096;48.142;16.290;2023-04-30T06:14:00;13.50;99.90
14095;DHT22;18096;48.142;16.290;2023-04-30T06:16:25;13.50;99.90
14095;DHT22;18096;48.142;16.290;2023-04-30T06:18:51;13.60;99.90
14095;DHT22;18096;48.142;16.290;2023-04-30T06:21:16;13.70;99.90
14095;DHT22;18096;48.142;16.290;2023-04-30T06:23:42;13.70;99.90
14095;DHT22;18096;48.142;16.290;2023-04-30T06:26:08;13.70;99.90
14095;DHT22;18096;48.142;16.290;2023-04-30T06:28:33;13.70;99.90
14095;DHT22;18096;48.142;16.290;2023-04-30T06:30:59;13.70;99.90
14095;DHT22;18096;48.142;16.290;2023-04-30T06:33:24;13.70;99.90
14095;DHT22;18096;48.142;16.290;2023-04-30T06:35:50;13.80;99.90
14095;DHT22;18096;48.142;16.290;2023-04-30T06:38:19;13.80;99.90
14095;DHT22;18096;48.142;16.290;2023-04-30T06:40:44;13.80;99.90
14095;DHT22;18096;48.142;16.290;2023-04-30T06:43:10;13.70;99.90
14095;DHT22;18096;48.142;16.290;2023-04-30T06:45:37;13.80;99.90
14095;DHT22;18096;48.142;16.290;2023-04-30T06:48:02;13.80;99.90
14095;DHT22;18096;48.142;16.290;2023-04-30T06:50:28;13.80;99.90
14095;DHT22;18096;48.142;16.290;2023-04-30T06:52:54;13.80;99.90
14095;DHT22;18096;48.142;16.290;2023-04-30T06:55:19;13.80;99.90
14095;DHT22;18096;48.142;16.290;2023-04-30T06:57:45;13.80;99.90
14095;DHT22;18096;48.142;16.290;2023-04-30T07:00:11;13.80;99.90
14095;DHT22;18096;48.142;16.290;2023-04-30T07:02:39;13.80;99.90
14095;DHT22;18096;48.142;16.290;2023-04-30T07:05:05;13.80;99.90
14095;DHT22;18096;48.142;16.290;2023-04-30T07:07:31;13.80;99.90
14095;DHT22;18096;48.142;16.290;2023-04-30T07:09:58;13.90;99.90
14095;DHT22;18096;48.142;16.290;2023-04-30T07:12:23;14.00;99.90
14095;DHT22;18096;48.142;16.290;2023-04-30T07:14:49;14.00;99.90
14095;DHT22;18096;48.142;16.290;2023-04-30T07:17:14;14.00;99.90
14095;DHT22;18096;48.142;16.290;2023-04-30T07:19:40;14.00;99.90
14095;DHT22;18096;48.142;16.290;2023-04-30T07:22:06;14.00;99.90
14095;DHT22;18096;48.142;16.290;2023-04-30T07:24:32;14.00;99.90
14095;DHT22;18096;48.142;16.290;2023-04-30T07:26:58;14.10;99.90
14095;DHT22;18096;48.142;16.290;2023-04-30T07:29:27;14.10;99.90
14095;DHT22;18096;48.142;16.290;2023-04-30T07:31:53;14.20;99.90
14095;DHT22;18096;48.142;16.290;2023-04-30T07:34:19;14.20;99.90
14095;DHT22;18096;48.142;16.290;2023-04-30T07:36:47;14.20;99.90
14095;DHT22;18096;48.142;16.290;2023-04-30T07:39:12;14.30;99.90
14095;DHT22;18096;48.142;16.290;2023-04-30T07:41:38;14.30;99.90
14095;DHT22;18096;48.142;16.290;2023-04-30T07:44:04;14.40;99.90
14095;DHT22;18096;48.142;16.290;2023-04-30T07:46:30;14.40;99.90
14095;DHT22;18096;48.142;16.290;2023-04-30T07:48:56;14.40;99.90
14095;DHT22;18096;48.142;16.290;2023-04-30T07:51:22;14.50;99.90
14095;DHT22;18096;48.142;16.290;2023-04-30T07:53:47;14.50;99.90
14095;DHT22;18096;48.142;16.290;2023-04-30T07:56:13;14.60;99.90
14095;DHT22;18096;48.142;16.290;2023-04-30T07:58:38;14.60;99.90
14095;DHT22;18096;48.142;16.290;2023-04-30T08:01:04;14.60;99.90
14095;DHT22;18096;48.142;16.290;2023-04-30T08:03:30;14.60;99.90
14095;DHT22;18096;48.142;16.290;2023-04-30T08:05:56;14.60;99.90
14095;DHT22;18096;48.142;16.290;2023-04-30T08:08:22;14.60;99.90
14095;DHT22;18096;48.142;16.290;2023-04-30T08:10:47;14.60;99.90
14095;DHT22;18096;48.142;16.290;2023-04-30T08:13:13;14.60;99.90
14095;DHT22;18096;48.142;16.290;2023-04-30T08:15:38;14.60;99.90
14095;DHT22;18096;48.142;16.290;2023-04-30T08:18:04;14.60;99.90
14095;DHT22;18096;48.142;16.290;2023-04-30T08:20:31;14.70;99.90
14095;DHT22;18096;48.142;16.290;2023-04-30T08:22:57;14.80;99.90
14095;DHT22;18096;48.142;16.290;2023-04-30T08:25:23;14.80;99.90
14095;DHT22;18096;48.142;16.290;2023-04-30T08:27:49;14.80;99.90
14095;DHT22;18096;48.142;16.290;2023-04-30T08:30:15;14.80;99.90
14095;DHT22;18096;48.142;16.290;2023-04-30T08:32:41;14.90;99.90
14095;DHT22;18096;48.142;16.290;2023-04-30T08:35:07;14.90;99.90
14095;DHT22;18096;48.142;16.290;2023-04-30T08:37:33;14.90;99.90
14095;DHT22;18096;48.142;16.290;2023-04-30T08:39:59;14.90;99.90
14095;DHT22;18096;48.142;16.290;2023-04-30T08:42:33;14.90;99.90
14095;DHT22;18096;48.142;16.290;2023-04-30T08:45:00;14.90;99.90
14095;DHT22;18096;48.142;16.290;2023-04-30T08:47:28;14.90;99.90
14095;DHT22;18096;48.142;16.290;2023-04-30T08:49:54;14.90;99.90
14095;DHT22;18096;48.142;16.290;2023-04-30T08:52:20;14.90;99.90
14095;DHT22;18096;48.142;16.290;2023-04-30T08:54:47;14.90;99.90
14095;DHT22;18096;48.142;16.290;2023-04-30T08:57:15;14.90;99.90
14095;DHT22;18096;48.142;16.290;2023-04-30T08:59:44;14.90;99.90
14095;DHT22;18096;48.142;16.290;2023-04-30T09:02:11;14.80;99.90
14095;DHT22;18096;48.142;16.290;2023-04-30T09:04:36;14.80;99.90
14095;DHT22;18096;48.142;16.290;2023-04-30T09:07:02;14.80;99.90
14095;DHT22;18096;48.142;16.290;2023-04-30T09:09:29;14.80;99.90
14095;DHT22;18096;48.142;16.290;2023-04-30T09:12:17;14.70;99.90
14095;DHT22;18096;48.142;16.290;2023-04-30T09:15:03;14.70;99.90
14095;DHT22;18096;48.142;16.290;2023-04-30T09:17:30;14.70;99.90
14095;DHT22;18096;48.142;16.290;2023-04-30T09:20:25;14.60;99.90
14095;DHT22;18096;48.142;16.290;2023-04-30T09:23:07;14.60;99.90
14095;DHT22;18096;48.142;16.290;2023-04-30T09:25:40;14.60;99.90
14095;DHT22;18096;48.142;16.290;2023-04-30T09:28:10;14.60;99.80
14095;DHT22;18096;48.142;16.290;2023-04-30T09:30:37;14.60;99.60
14095;DHT22;18096;48.142;16.290;2023-04-30T09:33:03;14.60;99.70
14095;DHT22;18096;48.142;16.290;2023-04-30T09:35:33;14.60;99.80
14095;DHT22;18096;48.142;16.290;2023-04-30T09:37:59;14.60;99.90
14095;DHT22;18096;48.142;16.290;2023-04-30T09:40:38;14.70;99.90
14095;DHT22;18096;48.142;16.290;2023-04-30T09:43:05;14.70;99.90
14095;DHT22;18096;48.142;16.290;2023-04-30T09:48:08;14.80;99.40
14095;DHT22;18096;48.142;16.290;2023-04-30T09:50:38;14.70;99.40
14095;DHT22;18096;48.142;16.290;2023-04-30T09:53:09;14.70;99.60
14095;DHT22;18096;48.142;16.290;2023-04-30T09:55:37;14.80;99.40
14095;DHT22;18096;48.142;16.290;2023-04-30T09:58:06;14.80;99.10
14095;DHT22;18096;48.142;16.290;2023-04-30T10:00:34;14.80;99.40
14095;DHT22;18096;48.142;16.290;2023-04-30T10:03:06;14.90;99.50
14095;DHT22;18096;48.142;16.290;2023-04-30T10:05:36;15.00;99.50
14095;DHT22;18096;48.142;16.290;2023-04-30T10:08:06;15.10;99.80
14095;DHT22;18096;48.142;16.290;2023-04-30T10:10:32;15.20;99.70
14095;DHT22;18096;48.142;16.290;2023-04-30T10:13:03;15.40;99.30
14095;DHT22;18096;48.142;16.290;2023-04-30T10:15:39;15.50;98.70
14095;DHT22;18096;48.142;16.290;2023-04-30T10:18:32;15.50;98.20
14095;DHT22;18096;48.142;16.290;2023-04-30T10:20:56;15.60;98.30
14095;DHT22;18096;48.142;16.290;2023-04-30T10:23:23;15.60;98.50
14095;DHT22;18096;48.142;16.290;2023-04-30T10:25:50;15.60;98.10
14095;DHT22;18096;48.142;16.290;2023-04-30T10:28:16;15.70;98.10
14095;DHT22;18096;48.142;16.290;2023-04-30T10:30:41;15.60;98.20
14095;DHT22;18096;48.142;16.290;2023-04-30T10:33:28;15.60;98.00
14095;DHT22;18096;48.142;16.290;2023-04-30T10:35:58;15.60;98.10
14095;DHT22;18096;48.142;16.290;2023-04-30T10:38:27;15.60;97.80
14095;DHT22;18096;48.142;16.290;2023-04-30T10:40:58;15.60;97.50
14095;DHT22;18096;48.142;16.290;2023-04-30T10:43:25;15.60;97.30
14095;DHT22;18096;48.142;16.290;2023-04-30T10:45:50;15.60;97.60
14095;DHT22;18096;48.142;16.290;2023-04-30T10:48:17;15.60;96.60
14095;DHT22;18096;48.142;16.290;2023-04-30T10:50:51;15.70;96.80
14095;DHT22;18096;48.142;16.290;2023-04-30T10:53:19;15.70;97.00
14095;DHT22;18096;48.142;16.290;2023-04-30T10:55:59;15.80;97.10
14095;DHT22;18096;48.142;16.290;2023-04-30T10:58:29;15.80;97.30
14095;DHT22;18096;48.142;16.290;2023-04-30T11:01:04;15.90;97.50
14095;DHT22;18096;48.142;16.290;2023-04-30T11:03:32;15.90;95.60
14095;DHT22;18096;48.142;16.290;2023-04-30T11:06:00;16.00;95.40
14095;DHT22;18096;48.142;16.290;2023-04-30T11:08:35;16.00;95.60
14095;DHT22;18096;48.142;16.290;2023-04-30T11:11:02;16.00;96.10
14095;DHT22;18096;48.142;16.290;2023-04-30T11:13:43;16.00;96.60
14095;DHT22;18096;48.142;16.290;2023-04-30T11:16:10;16.00;96.50
14095;DHT22;18096;48.142;16.290;2023-04-30T11:18:45;16.00;96.10
14095;DHT22;18096;48.142;16.290;2023-04-30T11:21:11;16.00;95.90
14095;DHT22;18096;48.142;16.290;2023-04-30T11:23:42;16.00;95.60
14095;DHT22;18096;48.142;16.290;2023-04-30T11:26:08;16.00;95.60
14095;DHT22;18096;48.142;16.290;2023-04-30T11:28:35;16.00;94.80
14095;DHT22;18096;48.142;16.290;2023-04-30T11:31:02;15.90;95.20
14095;DHT22;18096;48.142;16.290;2023-04-30T11:33:30;16.00;95.60
14095;DHT22;18096;48.142;16.290;2023-04-30T11:35:58;16.00;95.30
14095;DHT22;18096;48.142;16.290;2023-04-30T11:38:36;16.00;95.40
14095;DHT22;18096;48.142;16.290;2023-04-30T11:41:03;16.10;95.50
14095;DHT22;18096;48.142;16.290;2023-04-30T11:43:30;16.10;95.00
14095;DHT22;18096;48.142;16.290;2023-04-30T11:46:06;16.10;94.60
14095;DHT22;18096;48.142;16.290;2023-04-30T11:48:37;16.10;93.70
14095;DHT22;18096;48.142;16.290;2023-04-30T11:51:05;16.20;94.20
14095;DHT22;18096;48.142;16.290;2023-04-30T11:53:38;16.20;94.70
14095;DHT22;18096;48.142;16.290;2023-04-30T11:56:04;16.20;94.90
14095;DHT22;18096;48.142;16.290;2023-04-30T11:58:34;16.20;95.00
14095;DHT22;18096;48.142;16.290;2023-04-30T12:01:02;16.20;95.20
14095;DHT22;18096;48.142;16.290;2023-04-30T12:03:28;16.20;94.60
14095;DHT22;18096;48.142;16.290;2023-04-30T12:05:54;16.30;94.80
14095;DHT22;18096;48.142;16.290;2023-04-30T12:08:19;16.30;94.90
14095;DHT22;18096;48.142;16.290;2023-04-30T12:10:45;16.30;94.10
14095;DHT22;18096;48.142;16.290;2023-04-30T12:13:14;16.40;93.80
14095;DHT22;18096;48.142;16.290;2023-04-30T12:15:56;16.40;93.60
14095;DHT22;18096;48.142;16.290;2023-04-30T12:18:23;16.40;93.50
14095;DHT22;18096;48.142;16.290;2023-04-30T12:20:49;16.40;93.60
14095;DHT22;18096;48.142;16.290;2023-04-30T12:23:15;16.40;93.90
14095;DHT22;18096;48.142;16.290;2023-04-30T12:25:41;16.40;93.60
14095;DHT22;18096;48.142;16.290;2023-04-30T12:28:09;16.40;93.40
14095;DHT22;18096;48.142;16.290;2023-04-30T12:30:35;16.40;93.70
14095;DHT22;18096;48.142;16.290;2023-04-30T12:33:02;16.30;94.30
14095;DHT22;18096;48.142;16.290;2023-04-30T12:35:29;16.30;93.70
14095;DHT22;18096;48.142;16.290;2023-04-30T12:38:05;16.20;93.00
14095;DHT22;18096;48.142;16.290;2023-04-30T12:40:31;16.20;93.90
14095;DHT22;18096;48.142;16.290;2023-04-30T12:43:02;16.20;95.00
14095;DHT22;18096;48.142;16.290;2023-04-30T12:45:50;16.20;95.80
14095;DHT22;18096;48.142;16.290;2023-04-30T12:48:17;16.20;96.10
14095;DHT22;18096;48.142;16.290;2023-04-30T12:50:47;16.20;96.00
14095;DHT22;18096;48.142;16.290;2023-04-30T12:53:13;16.20;96.30
14095;DHT22;18096;48.142;16.290;2023-04-30T12:55:40;16.20;96.70
14095;DHT22;18096;48.142;16.290;2023-04-30T13:00:51;16.30;95.90
14095;DHT22;18096;48.142;16.290;2023-04-30T13:03:18;16.30;95.80
14095;DHT22;18096;48.142;16.290;2023-04-30T13:05:47;16.30;95.80
14095;DHT22;18096;48.142;16.290;2023-04-30T13:08:14;16.30;95.90
14095;DHT22;18096;48.142;16.290;2023-04-30T13:10:42;16.30;95.80
14095;DHT22;18096;48.142;16.290;2023-04-30T13:13:11;16.30;95.70
14095;DHT22;18096;48.142;16.290;2023-04-30T13:15:37;16.30;95.60
14095;DHT22;18096;48.142;16.290;2023-04-30T13:18:03;16.30;95.50
14095;DHT22;18096;48.142;16.290;2023-04-30T13:20:28;16.30;95.20
14095;DHT22;18096;48.142;16.290;2023-04-30T13:22:54;16.20;95.20
14095;DHT22;18096;48.142;16.290;2023-04-30T13:25:20;16.10;95.50
14095;DHT22;18096;48.142;16.290;2023-04-30T13:27:46;16.10;95.90
14095;DHT22;18096;48.142;16.290;2023-04-30T13:30:12;16.10;96.00
14095;DHT22;18096;48.142;16.290;2023-04-30T13:32:37;16.10;96.10
14095;DHT22;18096;48.142;16.290;2023-04-30T13:35:03;16.10;96.30
14095;DHT22;18096;48.142;16.290;2023-04-30T13:37:29;16.20;96.30
14095;DHT22;18096;48.142;16.290;2023-04-30T13:40:00;16.10;96.10
14095;DHT22;18096;48.142;16.290;2023-04-30T13:42:26;16.20;96.30
14095;DHT22;18096;48.142;16.290;2023-04-30T13:44:51;16.20;95.70
14095;DHT22;18096;48.142;16.290;2023-04-30T13:47:18;16.20;95.10
14095;DHT22;18096;48.142;16.290;2023-04-30T13:49:44;16.20;95.10
14095;DHT22;18096;48.142;16.290;2023-04-30T13:52:09;16.20;95.20
14095;DHT22;18096;48.142;16.290;2023-04-30T13:54:35;16.30;95.20
14095;DHT22;18096;48.142;16.290;2023-04-30T13:57:01;16.40;95.30
14095;DHT22;18096;48.142;16.290;2023-04-30T13:59:27;16.50;94.90
14095;DHT22;18096;48.142;16.290;2023-04-30T14:01:53;16.60;95.00
14095;DHT22;18096;48.142;16.290;2023-04-30T14:04:19;16.70;95.20
14095;DHT22;18096;48.142;16.290;2023-04-30T14:06:44;16.70;93.90
14095;DHT22;18096;48.142;16.290;2023-04-30T14:09:11;16.80;94.00
14095;DHT22;18096;48.142;16.290;2023-04-30T14:11:37;16.80;93.70
14095;DHT22;18096;48.142;16.290;2023-04-30T14:14:04;16.80;93.70
14095;DHT22;18096;48.142;16.290;2023-04-30T14:16:31;16.80;93.70
14095;DHT22;18096;48.142;16.290;2023-04-30T14:18:56;16.80;93.20
14095;DHT22;18096;48.142;16.290;2023-04-30T14:21:22;16.80;93.00
14095;DHT22;18096;48.142;16.290;2023-04-30T14:23:48;16.80;93.00
14095;DHT22;18096;48.142;16.290;2023-04-30T14:26:13;16.80;93.10
14095;DHT22;18096;48.142;16.290;2023-04-30T14:28:39;16.80;93.20
14095;DHT22;18096;48.142;16.290;2023-04-30T14:31:05;16.70;93.30
14095;DHT22;18096;48.142;16.290;2023-04-30T14:33:31;16.70;93.40
14095;DHT22;18096;48.142;16.290;2023-04-30T14:35:57;16.70;93.40
14095;DHT22;18096;48.142;16.290;2023-04-30T14:38:25;16.70;93.50
14095;DHT22;18096;48.142;16.290;2023-04-30T14:40:50;16.70;93.20
14095;DHT22;18096;48.142;16.290;2023-04-30T14:43:16;16.60;93.30
14095;DHT22;18096;48.142;16.290;2023-04-30T14:45:42;16.60;93.30
14095;DHT22;18096;48.142;16.290;2023-04-30T14:48:10;16.60;93.00
14095;DHT22;18096;48.142;16.290;2023-04-30T14:50:36;16.60;92.80
14095;DHT22;18096;48.142;16.290;2023-04-30T14:53:05;16.70;92.70
14095;DHT22;18096;48.142;16.290;2023-04-30T14:55:31;16.80;93.10
14095;DHT22;18096;48.142;16.290;2023-04-30T14:57:58;16.90;92.60
14095;DHT22;18096;48.142;16.290;2023-04-30T15:00:24;17.00;92.20
14095;DHT22;18096;48.142;16.290;2023-04-30T15:02:49;17.00;91.60
14095;DHT22;18096;48.142;16.290;2023-04-30T15:05:15;17.00;90.10
14095;DHT22;18096;48.142;16.290;2023-04-30T15:07:41;17.00;90.10
14095;DHT22;18096;48.142;16.290;2023-04-30T15:10:07;17.00;90.00
14095;DHT22;18096;48.142;16.290;2023-04-30T15:12:33;16.90;90.50
14095;DHT22;18096;48.142;16.290;2023-04-30T15:15:00;16.90;90.10
14095;DHT22;18096;48.142;16.290;2023-04-30T15:17:26;16.90;90.30
14095;DHT22;18096;48.142;16.290;2023-04-30T15:19:52;16.90;90.30
14095;DHT22;18096;48.142;16.290;2023-04-30T15:22:18;17.00;90.40
14095;DHT22;18096;48.142;16.290;2023-04-30T15:24:43;17.00;89.60
14095;DHT22;18096;48.142;16.290;2023-04-30T15:27:09;17.00;88.70
14095;DHT22;18096;48.142;16.290;2023-04-30T15:29:35;17.00;88.80
14095;DHT22;18096;48.142;16.290;2023-04-30T15:32:01;17.00;88.30
14095;DHT22;18096;48.142;16.290;2023-04-30T15:34:26;16.90;86.60
14095;DHT22;18096;48.142;16.290;2023-04-30T15:36:52;16.80;86.10